Time;durP1;ratioP1;P1;durP2;ratioP2;P2;SDS_P1;SDS_P2;PMS_P1;PMS_P2;Temp;Humidity;BMP_temperature;BMP_pressure;BME280_temperature;BME280_humidity;BME280_pressure;Samples;Min_cycle;Max_cycle;Signal;HPM_P1;HPM_P2
2023/06/03 00:00:35;;;;;;;10.25;7.07;;;;;;;16.03;61.28;101984.00;5072791;28;20023;-64
2023/06/03 00:03:01;;;;;;;12.43;7.28;;;;;;;16.09;60.90;101977.38;5082855;28;20371;-65
2023/06/03 00:05:26;;;;;;;12.00;7.72;;;;;;;16.03;61.11;101973.66;5073183;28;20021;-65
2023/06/03 00:07:51;;;;;;;14.05;7.80;;;;;;;16.03;61.01;101978.41;5070571;28;20039;-65
2023/06/03 00:10:17;;;;;;;13.57;7.85;;;;;;;16.03;60.77;101984.00;5069165;28;20031;-65
2023/06/03 00:12:44;;;;;;;16.58;7.90;;;;;;;15.99;60.77;101980.88;5070080;28;20063;-65
2023/06/03 00:15:09;;;;;;;16.05;8.68;;;;;;;16.00;60.83;101974.19;5070900;28;20119;-65
2023/06/03 00:17:34;;;;;;;16.38;8.10;;;;;;;15.98;60.58;101975.56;5069211;28;20073;-65
2023/06/03 00:20:09;;;;;;;16.05;7.93;;;;;;;15.87;60.68;101978.22;5070539;28;20387;-65
2023/06/03 00:22:36;;;;;;;15.07;7.65;;;;;;;15.86;60.63;101981.28;5069138;28;20044;-65
2023/06/03 00:25:01;;;;;;;14.05;7.47;;;;;;;15.81;60.52;101982.09;5065562;28;20032;-65
2023/06/03 00:27:27;;;;;;;13.32;7.35;;;;;;;15.85;60.24;101985.22;5050816;28;20037;-65
2023/06/03 00:29:52;;;;;;;13.15;7.90;;;;;;;15.73;60.23;101988.13;5080169;28;20051;-65
2023/06/03 00:32:17;;;;;;;12.45;7.72;;;;;;;15.77;60.18;101975.31;5072821;28;20544;-65
2023/06/03 00:34:43;;;;;;;13.90;7.32;;;;;;;15.72;60.32;101986.44;5073385;28;20055;-65
2023/06/03 00:37:08;;;;;;;14.70;7.07;;;;;;;15.70;60.04;101985.84;5052582;28;20103;-65
2023/06/03 00:39:33;;;;;;;16.60;7.40;;;;;;;15.75;59.85;101991.50;5063725;28;20041;-65
2023/06/03 00:41:59;;;;;;;13.40;7.85;;;;;;;15.70;59.85;101988.66;5078893;28;20032;-65
2023/06/03 00:44:24;;;;;;;13.90;7.63;;;;;;;15.68;59.73;101979.69;5059337;28;20029;-65
2023/06/03 00:46:50;;;;;;;13.23;7.60;;;;;;;15.63;59.93;101979.56;5075475;28;20036;-65
2023/06/03 00:49:16;;;;;;;15.82;7.95;;;;;;;15.65;59.59;101980.19;5056184;28;20048;-65
2023/06/03 00:51:41;;;;;;;14.35;7.85;;;;;;;15.57;59.72;101986.22;5062297;28;20164;-65
2023/06/03 00:54:07;;;;;;;16.05;7.82;;;;;;;15.60;59.86;101980.06;5063129;28;20089;-65
2023/06/03 00:56:38;;;;;;;13.57;7.28;;;;;;;15.49;59.92;101984.72;5075827;28;20045;-65
2023/06/03 00:59:04;;;;;;;12.82;7.15;;;;;;;15.52;59.74;101983.31;5066744;28;20384;-65
2023/06/03 01:01:30;;;;;;;13.30;7.65;;;;;;;15.55;59.55;101978.06;5070130;28;20040;-65
2023/06/03 01:03:56;;;;;;;14.88;7.72;;;;;;;15.47;59.68;101986.91;5080284;28;20537;-65
2023/06/03 01:06:45;;;;;;;13.45;7.88;;;;;;;15.54;59.30;101986.72;5075846;28;20029;-65
2023/06/03 01:09:34;;;;;;;15.63;8.02;;;;;;;15.40;59.71;101981.47;5071120;28;20054;-65
2023/06/03 01:12:24;;;;;;;11.95;7.03;;;;;;;15.41;59.63;101974.81;5090039;28;20064;-64
2023/06/03 01:14:57;;;;;;;14.85;7.63;;;;;;;15.35;59.45;101987.00;5064775;28;20025;-65
2023/06/03 01:17:27;;;;;;;16.80;7.82;;;;;;;15.32;59.49;101979.13;5060940;28;20072;-65
2023/06/03 01:19:56;;;;;;;15.55;7.88;;;;;;;15.28;59.65;101983.53;5085388;28;20026;-65
2023/06/03 01:22:26;;;;;;;14.13;8.00;;;;;;;15.25;59.49;101984.09;5086708;28;20384;-65
2023/06/03 01:25:06;;;;;;;13.80;7.63;;;;;;;15.26;59.53;101984.94;5054611;28;20079;-65
2023/06/03 01:27:31;;;;;;;13.73;8.27;;;;;;;15.18;59.76;101981.47;5049865;28;20033;-65
2023/06/03 01:29:59;;;;;;;12.95;7.50;;;;;;;15.21;59.50;101982.91;5079782;28;20823;-65
2023/06/03 01:32:27;;;;;;;11.63;7.88;;;;;;;15.13;59.83;101984.19;5066180;28;20451;-65
2023/06/03 01:34:52;;;;;;;14.02;7.28;;;;;;;15.14;59.59;101980.28;5052683;28;20029;-65
2023/06/03 01:37:19;;;;;;;17.27;7.80;;;;;;;15.12;59.47;101985.28;5076700;28;20077;-65
2023/06/03 01:39:44;;;;;;;14.20;7.57;;;;;;;15.07;59.83;101987.16;5083989;28;20028;-65
2023/06/03 01:42:11;;;;;;;15.50;8.52;;;;;;;15.02;59.89;101984.28;5087972;28;20561;-65
2023/06/03 01:44:37;;;;;;;14.95;7.68;;;;;;;15.08;59.72;101972.06;5056462;28;20025;-65
2023/06/03 01:47:03;;;;;;;14.23;7.80;;;;;;;15.08;59.61;101978.50;5080240;28;20464;-65
2023/06/03 01:49:31;;;;;;;14.85;7.80;;;;;;;15.08;59.45;101978.50;5058831;28;20032;-65
2023/06/03 01:52:01;;;;;;;12.75;7.60;;;;;;;15.06;59.52;101979.88;5055974;28;20389;-65
2023/06/03 01:54:27;;;;;;;15.40;7.82;;;;;;;15.07;59.47;101981.56;5053013;28;20067;-66
2023/06/03 01:56:54;;;;;;;15.18;7.63;;;;;;;15.06;59.36;101985.47;5067219;28;20035;-66
2023/06/03 01:59:23;;;;;;;15.38;7.70;;;;;;;15.09;59.34;101979.34;5085936;28;20036;-65
2023/06/03 02:01:51;;;;;;;14.43;7.10;;;;;;;15.10;59.22;101970.72;5075808;28;20023;-65
2023/06/03 02:04:17;;;;;;;15.85;7.60;;;;;;;15.08;59.06;101974.84;5091479;28;20030;-64
2023/06/03 02:06:50;;;;;;;13.50;7.38;;;;;;;15.15;58.99;101979.16;5071774;28;20100;-64
2023/06/03 02:09:15;;;;;;;14.52;7.30;;;;;;;15.12;58.60;101981.63;5082693;28;20032;-64
2023/06/03 02:11:44;;;;;;;14.50;7.13;;;;;;;15.13;58.60;101977.72;5092744;28;20536;-64
2023/06/03 02:14:11;;;;;;;13.60;7.18;;;;;;;15.07;58.97;101981.56;5092621;28;20035;-64
2023/06/03 02:16:37;;;;;;;13.00;7.60;;;;;;;15.15;58.43;101967.97;5092570;28;20024;-65
2023/06/03 02:19:10;;;;;;;14.77;7.43;;;;;;;15.11;58.60;101977.16;5090079;28;20051;-65
2023/06/03 02:21:36;;;;;;;12.18;6.78;;;;;;;15.06;58.58;101979.88;5062395;28;20055;-66
2023/06/03 02:24:02;;;;;;;13.35;7.10;;;;;;;15.12;58.33;101976.03;5063904;28;20130;-64
2023/06/03 02:26:28;;;;;;;11.90;6.93;;;;;;;15.19;58.12;101973.91;5061213;28;20397;-65
2023/06/03 02:28:53;;;;;;;10.70;6.80;;;;;;;15.19;58.14;101976.72;5088649;28;20039;-64
2023/06/03 02:31:19;;;;;;;12.18;7.00;;;;;;;15.23;58.00;101975.09;5072803;28;20036;-65
2023/06/03 02:33:44;;;;;;;12.10;6.93;;;;;;;15.19;58.19;101973.91;5080911;28;20032;-64
2023/06/03 02:36:11;;;;;;;11.75;6.95;;;;;;;15.16;58.32;101977.22;5070116;28;20040;-66
2023/06/03 02:38:37;;;;;;;14.60;7.63;;;;;;;15.11;58.13;101978.00;5073634;28;20425;-65
2023/06/03 02:41:02;;;;;;;15.65;7.55;;;;;;;15.03;58.43;101972.00;5051061;28;20063;-66
2023/06/03 02:43:27;;;;;;;11.13;7.15;;;;;;;15.10;57.87;101986.66;5060284;28;20385;-65
2023/06/03 02:45:52;;;;;;;13.73;6.78;;;;;;;15.10;58.07;101972.66;5058294;28;20033;-64
2023/06/03 02:48:18;;;;;;;10.32;6.78;;;;;;;15.05;58.34;101976.22;5064183;28;20607;-63
2023/06/03 02:50:43;;;;;;;13.40;6.97;;;;;;;15.02;58.38;101978.69;5062236;28;20040;-63
2023/06/03 02:53:09;;;;;;;11.63;7.00;;;;;;;15.08;58.26;101981.28;5091304;28;20420;-63
2023/06/03 02:55:36;;;;;;;11.93;7.47;;;;;;;15.10;57.78;101981.06;5072925;28;20549;-63
2023/06/03 02:58:02;;;;;;;9.57;6.50;;;;;;;15.11;58.00;101982.75;5063776;28;20048;-63
2023/06/03 03:00:27;;;;;;;13.45;7.25;;;;;;;15.00;58.03;101975.28;5086102;28;20044;-64
2023/06/03 03:02:52;;;;;;;12.77;6.97;;;;;;;14.96;58.29;101986.13;5073735;28;20154;-64
2023/06/03 03:05:18;;;;;;;10.98;6.82;;;;;;;14.85;58.58;101978.69;5072250;28;20048;-63
2023/06/03 03:07:44;;;;;;;12.73;7.30;;;;;;;14.84;58.60;101977.84;5052125;28;20142;-64
2023/06/03 03:10:09;;;;;;;14.43;7.30;;;;;;;14.84;58.45;101989.00;5052226;28;20033;-64
2023/06/03 03:12:35;;;;;;;11.27;6.53;;;;;;;14.88;58.43;101973.44;5065244;28;20045;-64
2023/06/03 03:15:00;;;;;;;10.65;6.30;;;;;;;14.88;58.28;101979.03;5067213;28;20176;-65
2023/06/03 03:17:26;;;;;;;11.30;6.40;;;;;;;14.85;58.36;101987.91;5071350;28;20585;-65
2023/06/03 03:19:51;;;;;;;11.85;6.75;;;;;;;14.83;58.63;101981.75;5078324;28;20046;-65
2023/06/03 03:22:16;;;;;;;10.52;7.20;;;;;;;14.86;58.35;101981.25;5082093;28;20028;-64
2023/06/03 03:24:42;;;;;;;11.40;7.03;;;;;;;14.84;58.50;101988.16;5090511;28;20067;-64
2023/06/03 03:27:08;;;;;;;12.80;7.10;;;;;;;14.81;58.29;101995.09;5085111;28;20059;-65
2023/06/03 03:29:33;;;;;;;11.00;6.88;;;;;;;14.76;58.53;101992.22;5054157;28;20032;-65
2023/06/03 03:32:06;;;;;;;12.63;7.32;;;;;;;14.68;58.79;101999.09;5076441;28;20028;-64
2023/06/03 03:34:31;;;;;;;11.55;7.45;;;;;;;14.68;58.57;101999.09;5085618;28;20024;-65
2023/06/03 03:36:57;;;;;;;10.10;6.82;;;;;;;14.69;58.69;101995.19;5067602;28;20036;-65
2023/06/03 03:39:22;;;;;;;11.07;6.97;;;;;;;14.63;59.01;101996.22;5050836;28;20028;-65
2023/06/03 03:41:47;;;;;;;10.43;6.60;;;;;;;14.55;58.92;101993.84;5069115;28;20495;-64
2023/06/03 03:44:13;;;;;;;16.00;7.28;;;;;;;14.54;58.85;102000.53;5080602;28;20039;-65
2023/06/03 03:46:52;;;;;;;13.00;6.88;;;;;;;14.53;59.10;101995.19;5086523;28;20021;-64
2023/06/03 03:49:34;;;;;;;10.05;6.93;;;;;;;14.55;59.13;101993.84;5077766;28;23725;-64
2023/06/03 03:52:04;;;;;;;8.05;6.70;;;;;;;14.49;58.96;101998.47;5080584;28;20103;-64
2023/06/03 03:54:30;;;;;;;12.07;6.85;;;;;;;14.49;59.37;101990.09;5090586;28;20039;-64
2023/06/03 03:56:56;;;;;;;13.15;7.28;;;;;;;14.48;59.05;102002.34;5090312;28;20028;-65
2023/06/03 03:59:25;;;;;;;9.20;6.82;;;;;;;14.54;58.85;101996.88;5082596;28;20067;-65
2023/06/03 04:01:51;;;;;;;12.43;7.05;;;;;;;14.44;58.93;102000.31;5075742;28;20101;-64
2023/06/03 04:04:35;;;;;;;10.48;6.90;;;;;;;14.47;59.43;102002.59;5076550;28;20041;-64
2023/06/03 04:07:01;;;;;;;9.55;7.05;;;;;;;14.50;58.95;102004.91;5061303;28;20032;-64
2023/06/03 04:09:26;;;;;;;12.57;7.18;;;;;;;14.44;59.72;102000.31;5087984;28;20027;-64
2023/06/03 04:11:52;;;;;;;10.48;7.10;;;;;;;14.44;58.93;102001.16;5085214;28;20094;-64
2023/06/03 04:14:25;;;;;;;9.00;6.70;;;;;;;14.52;58.96;101999.06;5089327;28;20040;-65
2023/06/03 04:16:56;;;;;;;12.50;7.03;;;;;;;14.53;58.72;101997.97;5090148;28;20032;-65
2023/06/03 04:19:32;;;;;;;10.77;6.80;;;;;;;14.53;58.91;102006.34;5071821;28;20033;-65
2023/06/03 04:22:02;;;;;;;12.60;6.72;;;;;;;14.45;59.01;102000.03;5057067;28;20829;-64
2023/06/03 04:24:28;;;;;;;9.75;7.07;;;;;;;14.54;58.70;102005.25;5063342;28;20032;-65
2023/06/03 04:26:54;;;;;;;13.52;6.88;;;;;;;14.59;58.66;102014.59;5072585;28;20056;-64
2023/06/03 04:29:19;;;;;;;10.43;6.65;;;;;;;14.60;58.26;102010.69;5079248;28;20067;-65
2023/06/03 04:31:45;;;;;;;10.50;6.90;;;;;;;14.59;58.29;102008.16;5058302;28;20059;-65
2023/06/03 04:34:10;;;;;;;9.88;6.40;;;;;;;14.62;58.42;102018.81;5062412;28;20051;-64
2023/06/03 04:36:35;;;;;;;10.95;7.20;;;;;;;14.65;58.19;102018.31;5050099;28;20112;-66
2023/06/03 04:39:04;;;;;;;9.55;6.40;;;;;;;14.68;57.78;102009.41;5054039;28;20116;-65
2023/06/03 04:41:32;;;;;;;11.30;6.30;;;;;;;14.65;57.88;102009.91;5079272;28;20035;-65
2023/06/03 04:43:57;;;;;;;10.10;6.30;;;;;;;14.61;57.73;102017.97;5075573;28;20096;-65
2023/06/03 04:46:29;;;;;;;9.82;6.70;;;;;;;14.58;57.72;102012.91;5066055;28;20028;-65
2023/06/03 04:48:55;;;;;;;10.17;6.93;;;;;;;14.62;57.71;102010.41;5060264;28;20032;-65
2023/06/03 04:51:22;;;;;;;12.85;6.78;;;;;;;14.63;57.74;102009.34;5060537;28;20303;-65
2023/06/03 04:53:48;;;;;;;15.02;6.82;;;;;;;14.60;57.54;102012.63;5066495;28;20032;-65
2023/06/03 04:56:13;;;;;;;8.43;6.25;;;;;;;14.57;57.97;102016.78;5079986;28;20028;-66
2023/06/03 04:58:42;;;;;;;12.18;6.43;;;;;;;14.66;57.73;102020.03;5075962;28;20110;-66
2023/06/03 05:01:08;;;;;;;10.68;6.05;;;;;;;14.72;57.62;102022.63;5072060;28;20530;-64
2023/06/03 05:03:35;;;;;;;12.15;6.65;;;;;;;14.70;57.32;102016.47;5053662;28;20028;-64
2023/06/03 05:06:01;;;;;;;8.38;5.70;;;;;;;14.71;57.21;102026.53;5080238;28;20104;-66
2023/06/03 05:08:26;;;;;;;7.15;6.07;;;;;;;14.74;56.85;102022.41;5072516;28;21106;-66
2023/06/03 05:10:52;;;;;;;9.27;6.00;;;;;;;14.77;56.86;102021.03;5072343;28;20086;-66
2023/06/03 05:13:17;;;;;;;8.30;5.70;;;;;;;14.76;56.72;102016.53;5069850;28;20071;-66
2023/06/03 05:15:42;;;;;;;10.15;6.10;;;;;;;14.72;56.31;102013.41;5068644;28;20037;-66
2023/06/03 05:18:08;;;;;;;10.23;6.55;;;;;;;14.67;56.20;102021.72;5055499;28;20032;-67
2023/06/03 05:20:33;;;;;;;9.50;6.15;;;;;;;14.68;56.50;102024.25;5059480;28;20066;-66
2023/06/03 05:22:58;;;;;;;9.48;5.80;;;;;;;14.74;56.36;102016.81;5076898;28;20021;-66
2023/06/03 05:25:24;;;;;;;9.02;6.25;;;;;;;14.77;56.39;102021.88;5081326;28;20020;-67
2023/06/03 05:27:49;;;;;;;6.55;5.38;;;;;;;14.85;55.93;102013.06;5093535;28;20028;-66
2023/06/03 05:30:15;;;;;;;12.45;5.60;;;;;;;14.90;55.97;102020.72;5088192;28;20035;-67
2023/06/03 05:32:41;;;;;;;7.93;5.25;;;;;;;15.03;55.24;102019.53;5080379;28;20486;-66
2023/06/03 05:35:07;;;;;;;7.50;5.63;;;;;;;15.03;54.78;102020.38;5066148;28;20052;-66
2023/06/03 05:37:32;;;;;;;8.23;5.32;;;;;;;15.00;54.68;102020.03;5069626;28;20060;-65
2023/06/03 05:39:58;;;;;;;7.43;5.28;;;;;;;15.02;54.16;102018.69;5057848;28;20443;-65
2023/06/03 05:42:23;;;;;;;8.98;5.15;;;;;;;15.08;54.37;102019.59;5075892;28;20073;-65
2023/06/03 05:44:48;;;;;;;7.75;4.88;;;;;;;15.10;54.23;102023.84;5093449;28;20060;-66
2023/06/03 05:47:13;;;;;;;8.88;5.72;;;;;;;15.22;54.35;102023.75;5088545;28;20028;-66
2023/06/03 05:49:39;;;;;;;7.00;4.90;;;;;;;15.21;53.17;102019.25;5071929;28;20036;-65
2023/06/03 05:52:04;;;;;;;8.38;5.00;;;;;;;15.26;53.67;102016.53;5072154;28;20082;-66
2023/06/03 05:54:30;;;;;;;8.88;5.03;;;;;;;15.23;53.17;102019.84;5072940;28;20030;-65
2023/06/03 05:56:56;;;;;;;7.90;4.65;;;;;;;15.20;52.64;102018.38;5070955;28;20035;-65
2023/06/03 05:59:22;;;;;;;8.00;4.85;;;;;;;15.35;52.84;102015.00;5078766;28;20032;-66
2023/06/03 06:01:47;;;;;;;11.40;5.10;;;;;;;15.47;52.63;102014.88;5090441;28;20078;-65
2023/06/03 06:04:12;;;;;;;8.35;5.15;;;;;;;15.59;52.49;102025.97;5092957;28;20032;-65
2023/06/03 06:06:37;;;;;;;7.75;4.50;;;;;;;15.62;51.97;102022.66;5091853;28;20032;-65
2023/06/03 06:09:03;;;;;;;11.50;4.70;;;;;;;15.68;51.79;102027.25;5084054;28;20041;-65
2023/06/03 06:11:28;;;;;;;6.72;4.35;;;;;;;15.74;50.72;102025.38;5086168;28;20092;-64
2023/06/03 06:13:53;;;;;;;6.47;4.53;;;;;;;15.74;50.91;102017.81;5082276;28;20048;-64
2023/06/03 06:16:19;;;;;;;6.15;4.38;;;;;;;15.75;49.98;102011.09;5066457;28;20028;-64
2023/06/03 06:18:44;;;;;;;9.32;4.90;;;;;;;15.79;50.14;102020.66;5086186;28;20028;-64
2023/06/03 06:21:09;;;;;;;8.77;5.03;;;;;;;15.84;50.31;102023.56;5082288;28;20093;-64
2023/06/03 06:23:35;;;;;;;8.63;4.55;;;;;;;15.97;50.42;102024.28;5071760;28;20373;-64
2023/06/03 06:26:00;;;;;;;5.55;4.10;;;;;;;16.10;50.34;102023.88;5072518;28;20034;-64
2023/06/03 06:28:26;;;;;;;7.80;4.70;;;;;;;16.12;48.15;102033.72;5088957;28;20115;-65
2023/06/03 06:30:53;;;;;;;5.18;4.13;;;;;;;16.13;47.68;102029.78;5069701;28;20032;-65
2023/06/03 06:33:18;;;;;;;8.13;4.13;;;;;;;16.18;47.93;102026.19;5065638;28;20052;-66
2023/06/03 06:35:44;;;;;;;8.07;4.25;;;;;;;16.26;47.71;102031.34;5068728;28;20068;-65
2023/06/03 06:38:11;;;;;;;7.93;4.72;;;;;;;16.31;47.26;102028.63;5064808;28;20507;-65
2023/06/03 06:40:40;;;;;;;5.05;3.72;;;;;;;16.37;47.73;102023.91;5071793;28;20031;-67
2023/06/03 06:43:07;;;;;;;5.47;3.72;;;;;;;16.49;47.91;102023.75;5089434;28;20065;-66
2023/06/03 06:45:36;;;;;;;6.15;3.53;;;;;;;16.57;46.73;102031.66;5080473;28;20033;-65
2023/06/03 06:48:08;;;;;;;7.47;4.30;;;;;;;16.72;46.68;102028.19;5068279;28;20028;-64
2023/06/03 06:50:46;;;;;;;5.90;4.20;;;;;;;16.87;46.92;102032.00;5067937;28;20032;-65
2023/06/03 06:53:13;;;;;;;6.45;4.60;;;;;;;16.98;45.89;102030.13;5078633;28;20032;-65
2023/06/03 06:55:51;;;;;;;8.77;4.40;;;;;;;17.06;45.90;102031.59;5066727;28;20093;-62
2023/06/03 06:58:17;;;;;;;9.27;4.43;;;;;;;17.10;44.64;102038.38;5078662;28;20089;-64
2023/06/03 07:00:43;;;;;;;5.97;3.97;;;;;;;17.18;45.19;102029.44;5075544;28;20067;-65
2023/06/03 07:03:09;;;;;;;6.95;4.28;;;;;;;17.24;43.67;102036.78;5074528;28;20048;-67
2023/06/03 07:05:35;;;;;;;7.18;3.92;;;;;;;17.34;44.49;102042.47;5078735;28;20039;-66
2023/06/03 07:08:00;;;;;;;6.20;3.65;;;;;;;17.40;43.20;102034.94;5084485;28;20400;-64
2023/06/03 07:10:25;;;;;;;10.90;4.35;;;;;;;17.45;43.43;102031.31;5068468;28;20376;-67
2023/06/03 07:12:55;;;;;;;7.18;4.35;;;;;;;17.53;43.53;102033.63;5069003;28;20053;-64
2023/06/03 07:15:22;;;;;;;7.78;3.83;;;;;;;17.64;43.79;102027.81;5071362;28;20123;-65
2023/06/03 07:17:57;;;;;;;11.18;4.10;;;;;;;17.67;43.03;102024.44;5067586;28;20027;-64
2023/06/03 07:20:31;;;;;;;5.72;3.53;;;;;;;17.73;42.71;102022.50;5061189;28;20131;-66
2023/06/03 07:22:56;;;;;;;5.65;3.17;;;;;;;17.81;42.49;102022.00;5075607;28;20033;-63
2023/06/03 07:25:30;;;;;;;5.97;3.50;;;;;;;17.90;42.95;102019.53;5075499;28;20027;-64
2023/06/03 07:27:56;;;;;;;9.10;3.80;;;;;;;17.97;42.40;102025.75;5087564;28;20035;-64
2023/06/03 07:30:22;;;;;;;6.30;3.50;;;;;;;18.03;40.96;102024.63;5074055;28;20039;-66
2023/06/03 07:32:47;;;;;;;7.80;3.40;;;;;;;18.07;41.13;102031.38;5062699;28;20032;-66
2023/06/03 07:35:18;;;;;;;9.00;3.28;;;;;;;18.20;40.55;102032.00;5082504;28;20128;-65
2023/06/03 07:37:43;;;;;;;5.97;2.90;;;;;;;18.26;39.90;102020.50;5085905;28;20036;-65
2023/06/03 07:40:15;;;;;;;6.22;2.80;;;;;;;18.32;38.57;102027.84;5069716;28;20406;-64
2023/06/03 07:42:44;;;;;;;4.40;2.70;;;;;;;18.37;38.45;102027.84;5069731;28;20029;-65
2023/06/03 07:45:14;;;;;;;6.45;2.67;;;;;;;18.43;38.39;102017.47;5066660;28;20016;-65
2023/06/03 07:47:40;;;;;;;4.50;2.72;;;;;;;18.52;37.48;102020.56;5061064;28;20036;-65
2023/06/03 07:50:20;;;;;;;6.43;2.50;;;;;;;18.56;38.33;102027.31;5057723;28;20036;-64
2023/06/03 07:52:46;;;;;;;6.03;2.97;;;;;;;18.59;36.76;102032.41;5088469;28;20479;-64
2023/06/03 07:55:11;;;;;;;5.60;2.72;;;;;;;18.63;37.83;102033.53;5087545;28;20092;-63
2023/06/03 07:57:46;;;;;;;4.07;2.70;;;;;;;18.69;37.13;102037.19;5090483;28;20055;-63
2023/06/03 08:00:16;;;;;;;5.00;2.40;;;;;;;18.75;36.40;102034.13;5088980;28;20035;-64
2023/06/03 08:02:41;;;;;;;4.68;2.70;;;;;;;18.83;35.72;102027.97;5082548;28;20040;-64
2023/06/03 08:05:06;;;;;;;7.30;2.38;;;;;;;18.94;36.92;102025.13;5063771;28;20029;-61
2023/06/03 08:07:32;;;;;;;8.38;2.33;;;;;;;19.01;35.45;102029.34;5069685;28;20044;-64
2023/06/03 08:09:58;;;;;;;9.45;2.25;;;;;;;19.14;35.61;102033.59;5069528;28;20430;-66
2023/06/03 08:12:29;;;;;;;4.60;2.40;;;;;;;19.15;34.60;102028.81;5069646;28;20044;-66
2023/06/03 08:14:54;;;;;;;5.63;2.30;;;;;;;19.22;34.51;102027.38;5069112;28;20036;-66
2023/06/03 08:17:31;;;;;;;5.57;2.05;;;;;;;19.26;33.92;102036.13;5070088;28;20024;-66
2023/06/03 08:19:56;;;;;;;6.22;2.20;;;;;;;19.30;33.43;102037.22;5069655;28;20028;-67
2023/06/03 08:22:57;;;;;;;5.53;1.83;;;;;;;19.39;34.13;102029.91;5063349;28;20028;-66
2023/06/03 08:25:23;;;;;;;7.35;2.30;;;;;;;19.48;34.26;102027.34;5048199;28;20049;-66
2023/06/03 08:27:49;;;;;;;4.43;1.98;;;;;;;19.51;33.57;102021.13;5049312;28;20534;-65
2023/06/03 08:30:15;;;;;;;5.25;2.08;;;;;;;19.61;33.28;102029.56;5049291;28;20027;-65
2023/06/03 08:32:42;;;;;;;2.42;1.90;;;;;;;19.66;31.40;102029.59;5049171;28;20678;-65
2023/06/03 08:35:09;;;;;;;4.10;1.50;;;;;;;19.68;32.00;102030.13;5049356;28;20033;-66
2023/06/03 08:37:34;;;;;;;6.32;1.60;;;;;;;19.66;31.27;102023.97;5058269;28;20388;-66
2023/06/03 08:40:07;;;;;;;2.97;1.63;;;;;;;19.64;31.17;102031.84;5065942;28;20070;-65
2023/06/03 08:42:38;;;;;;;5.40;1.65;;;;;;;19.66;31.90;102023.97;5069485;28;20036;-65
2023/06/03 08:45:06;;;;;;;4.72;1.60;;;;;;;19.68;31.73;102015.22;5068846;28;20032;-66
2023/06/03 08:47:49;;;;;;;6.05;1.63;;;;;;;19.69;31.42;102017.75;5070046;28;20557;-66
2023/06/03 08:50:20;;;;;;;8.63;1.52;;;;;;;19.73;31.75;102015.19;5069948;28;20259;-66
2023/06/03 08:52:47;;;;;;;6.70;2.03;;;;;;;19.76;31.61;102011.78;5070843;28;20029;-66
2023/06/03 08:55:15;;;;;;;5.35;1.80;;;;;;;19.83;32.45;102013.19;5063470;28;20299;-66
2023/06/03 08:58:12;;;;;;;3.35;1.77;;;;;;;19.89;32.45;102032.91;5074905;28;20032;-66
2023/06/03 09:00:38;;;;;;;7.53;1.65;;;;;;;19.94;31.29;102018.78;5089944;28;20503;-66
2023/06/03 09:03:05;;;;;;;3.38;1.65;;;;;;;20.00;32.13;102017.63;5089849;28;20131;-66
2023/06/03 09:05:32;;;;;;;4.05;1.70;;;;;;;19.99;30.97;102016.78;5088787;28;20062;-66
2023/06/03 09:07:58;;;;;;;4.03;1.88;;;;;;;20.00;30.87;102012.84;5090211;28;20021;-66
2023/06/03 09:10:26;;;;;;;3.53;1.63;;;;;;;20.04;31.25;102015.91;5089413;28;20131;-66
2023/06/03 09:12:54;;;;;;;4.47;1.70;;;;;;;20.08;31.41;102008.56;5075392;28;20049;-66
2023/06/03 09:15:20;;;;;;;4.10;1.52;;;;;;;20.05;30.04;102012.81;5061747;28;20024;-66
2023/06/03 09:17:46;;;;;;;4.63;1.92;;;;;;;20.08;30.50;102009.44;5069191;28;20043;-66
2023/06/03 09:20:13;;;;;;;4.32;1.65;;;;;;;20.11;30.32;102010.81;5068283;28;20024;-66
2023/06/03 09:22:42;;;;;;;4.70;1.70;;;;;;;20.20;30.89;102016.69;5068903;28;20021;-66
2023/06/03 09:25:08;;;;;;;2.17;1.42;;;;;;;20.19;29.88;102015.84;5068543;28;20029;-66
2023/06/03 09:27:33;;;;;;;3.90;1.58;;;;;;;20.24;29.92;102010.19;5068370;28;20031;-66
2023/06/03 09:30:01;;;;;;;3.78;1.67;;;;;;;20.26;30.45;102009.88;5071150;28;20395;-66
2023/06/03 09:32:26;;;;;;;2.47;1.67;;;;;;;20.39;30.91;101999.94;5069986;28;20028;-67
2023/06/03 09:34:53;;;;;;;4.68;1.80;;;;;;;20.51;32.90;102011.72;5066277;28;20028;-68
2023/06/03 09:37:19;;;;;;;8.35;1.60;;;;;;;20.52;29.70;102013.44;5076499;28;20028;-65
2023/06/03 09:39:44;;;;;;;5.68;1.40;;;;;;;20.54;28.62;102019.63;5083921;28;20494;-68
2023/06/03 09:42:11;;;;;;;2.55;1.30;;;;;;;20.58;29.00;102010.28;5074484;28;20063;-67
2023/06/03 09:44:49;;;;;;;5.70;1.60;;;;;;;20.64;30.53;102013.06;5069120;28;20028;-69
2023/06/03 09:47:15;;;;;;;7.50;1.45;;;;;;;20.74;30.50;102022.28;5057336;28;20028;-69
2023/06/03 09:50:04;;;;;;;4.25;1.40;;;;;;;20.69;29.87;102008.22;5060360;28;20032;-69
2023/06/03 09:52:36;;;;;;;3.65;1.45;;;;;;;20.74;29.07;102011.00;5078226;28;20142;-68
2023/06/03 09:55:02;;;;;;;4.25;1.50;;;;;;;;;;5074844;28;20032;-68
2023/06/03 09:57:27;;;;;;;5.35;1.70;;;;;;;20.83;27.93;102009.25;5071617;28;20036;-67
2023/06/03 10:00:12;;;;;;;2.80;1.42;;;;;;;20.83;28.83;102017.72;5087714;28;21030;-69
2023/06/03 10:02:38;;;;;;;6.53;1.40;;;;;;;20.79;26.16;102021.44;5059633;28;20029;-69
2023/06/03 10:05:04;;;;;;;4.53;1.75;;;;;;;20.80;26.51;102015.47;5081143;28;20115;-69
2023/06/03 10:07:30;;;;;;;5.40;1.33;;;;;;;20.81;25.96;102011.53;5067271;28;20111;-70
2023/06/03 10:10:05;;;;;;;4.97;1.48;;;;;;;20.88;26.67;102011.19;5070685;28;20871;-69
2023/06/03 10:12:34;;;;;;;5.00;1.35;;;;;;;20.95;26.62;102024.97;5070521;28;20049;-69
2023/06/03 10:15:00;;;;;;;5.00;1.45;;;;;;;20.99;26.43;102014.78;5078204;28;20044;-68
2023/06/03 10:17:27;;;;;;;5.13;1.60;;;;;;;21.06;27.21;102010.47;5086225;28;20032;-66
2023/06/03 10:19:52;;;;;;;2.80;1.30;;;;;;;21.15;27.25;102016.31;5082141;28;20043;-65
2023/06/03 10:22:19;;;;;;;2.10;1.35;;;;;;;21.16;25.12;102009.53;5084190;28;20025;-65
2023/06/03 10:24:47;;;;;;;4.68;1.60;;;;;;;21.21;25.78;102005.81;5076442;28;20173;-68
2023/06/03 10:27:14;;;;;;;1.40;1.08;;;;;;;21.25;26.15;102021.00;5063226;28;20116;-67
2023/06/03 10:29:40;;;;;;;1.25;1.10;;;;;;;21.23;25.99;102007.22;5055362;28;20052;-64
2023/06/03 10:32:07;;;;;;;3.20;1.20;;;;;;;21.22;25.99;102016.81;5060221;28;20024;-66
2023/06/03 10:34:43;;;;;;;2.30;1.20;;;;;;;21.22;26.86;102005.53;5062331;28;20078;-70
2023/06/03 10:37:10;;;;;;;2.92;1.10;;;;;;;21.25;25.15;102009.72;5070757;28;20388;-69
2023/06/03 10:39:36;;;;;;;5.95;1.20;;;;;;;21.26;26.28;102009.44;5070636;28;20136;-67
2023/06/03 10:42:05;;;;;;;3.15;1.20;;;;;;;21.24;26.57;101994.78;5065510;28;20662;-65
2023/06/03 10:44:31;;;;;;;3.17;1.30;;;;;;;21.25;26.44;102007.75;5070167;28;20024;-68
2023/06/03 10:47:21;;;;;;;5.75;1.27;;;;;;;21.29;25.69;102008.81;5068575;28;20039;-63
2023/06/03 10:49:50;;;;;;;2.45;1.13;;;;;;;21.33;25.88;102009.09;5064483;28;20068;-64
2023/06/03 10:52:43;;;;;;;4.88;1.10;;;;;;;21.36;26.27;102010.50;5053768;28;20116;-66
2023/06/03 10:55:38;;;;;;;2.28;0.88;;;;;;;21.45;27.32;102003.88;5056479;28;20067;-67
2023/06/03 10:58:14;;;;;;;4.63;1.23;;;;;;;21.48;25.27;102005.28;5061456;28;20040;-66
2023/06/03 11:00:54;;;;;;;1.92;1.05;;;;;;;21.53;25.82;102006.06;5050126;28;20796;-67
2023/06/03 11:03:21;;;;;;;4.60;1.05;;;;;;;21.55;25.14;101997.31;5053046;28;20480;-63
2023/06/03 11:05:50;;;;;;;3.95;1.27;;;;;;;21.57;26.20;102000.66;5070043;28;20028;-66
2023/06/03 11:08:57;;;;;;;6.20;1.10;;;;;;;21.58;26.31;101999.53;5063024;28;20067;-61
2023/06/03 11:11:53;;;;;;;2.13;1.00;;;;;;;21.62;26.74;101997.78;5059947;28;20031;-61
2023/06/03 11:14:30;;;;;;;3.65;1.10;;;;;;;21.69;26.23;101988.94;5062820;28;20575;-62
2023/06/03 11:16:58;;;;;;;8.75;1.42;;;;;;;21.71;23.45;101997.97;5050428;28;20037;-66
2023/06/03 11:19:27;;;;;;;3.35;0.95;;;;;;;21.67;24.20;101997.72;5075933;28;20017;-61
2023/06/03 11:21:52;;;;;;;5.05;1.15;;;;;;;21.75;25.49;101999.88;5069035;28;20040;-68
2023/06/03 11:24:39;;;;;;;1.48;1.00;;;;;;;21.77;24.56;101991.97;5070701;28;20644;-66
2023/06/03 11:27:13;;;;;;;1.88;1.00;;;;;;;21.80;25.81;101991.34;5069529;28;20036;-66